sensor_id;sensor_type;location;lat;lon;timestamp;P1;durP1;ratioP1;P2;durP2;ratioP2
55148;SDS011;49539;48.160;11.530;2023-04-15T00:02:16;5.60;;;3.03;;
55148;SDS011;49539;48.160;11.530;2023-04-15T00:04:45;11.15;;;3.42;;
55148;SDS011;49539;48.160;11.530;2023-04-15T00:07:11;6.93;;;3.50;;
55148;SDS011;49539;48.160;11.530;2023-04-15T00:09:36;7.43;;;3.47;;
55148;SDS011;49539;48.160;11.530;2023-04-15T00:12:03;6.47;;;3.25;;
55148;SDS011;49539;48.160;11.530;2023-04-15T00:14:29;7.35;;;3.63;;
55148;SDS011;49539;48.160;11.530;2023-04-15T00:16:54;7.10;;;3.38;;
55148;SDS011;49539;48.160;11.530;2023-04-15T00:19:21;7.20;;;4.03;;
55148;SDS011;49539;48.160;11.530;2023-04-15T00:21:47;9.43;;;3.38;;
55148;SDS011;49539;48.160;11.530;2023-04-15T00:24:12;5.88;;;2.88;;
55148;SDS011;49539;48.160;11.530;2023-04-15T00:26:38;9.30;;;3.95;;
55148;SDS011;49539;48.160;11.530;2023-04-15T00:29:03;15.27;;;3.55;;
55148;SDS011;49539;48.160;11.530;2023-04-15T00:31:29;11.85;;;4.00;;
55148;SDS011;49539;48.160;11.530;2023-04-15T00:33:55;6.40;;;3.33;;
55148;SDS011;49539;48.160;11.530;2023-04-15T00:36:20;9.32;;;3.85;;
55148;SDS011;49539;48.160;11.530;2023-04-15T00:38:46;11.00;;;3.83;;
55148;SDS011;49539;48.160;11.530;2023-04-15T00:41:12;6.85;;;3.33;;
55148;SDS011;49539;48.160;11.530;2023-04-15T00:43:37;6.93;;;3.40;;
55148;SDS011;49539;48.160;11.530;2023-04-15T00:46:03;8.15;;;3.53;;
55148;SDS011;49539;48.160;11.530;2023-04-15T00:48:29;7.28;;;3.63;;
55148;SDS011;49539;48.160;11.530;2023-04-15T00:50:55;8.40;;;3.40;;
55148;SDS011;49539;48.160;11.530;2023-04-15T00:53:21;8.90;;;4.03;;
55148;SDS011;49539;48.160;11.530;2023-04-15T00:55:46;11.43;;;4.18;;
55148;SDS011;49539;48.160;11.530;2023-04-15T00:58:11;8.07;;;3.47;;
55148;SDS011;49539;48.160;11.530;2023-04-15T01:00:37;9.13;;;3.75;;
55148;SDS011;49539;48.160;11.530;2023-04-15T01:03:02;5.65;;;3.53;;
55148;SDS011;49539;48.160;11.530;2023-04-15T01:05:27;6.70;;;3.83;;
55148;SDS011;49539;48.160;11.530;2023-04-15T01:07:54;9.68;;;3.58;;
55148;SDS011;49539;48.160;11.530;2023-04-15T01:10:19;12.20;;;3.97;;
55148;SDS011;49539;48.160;11.530;2023-04-15T01:12:45;8.80;;;3.70;;
55148;SDS011;49539;48.160;11.530;2023-04-15T01:15:10;6.78;;;3.60;;
55148;SDS011;49539;48.160;11.530;2023-04-15T01:17:36;8.38;;;4.07;;
55148;SDS011;49539;48.160;11.530;2023-04-15T01:20:01;8.02;;;3.20;;
55148;SDS011;49539;48.160;11.530;2023-04-15T01:22:26;10.52;;;3.53;;
55148;SDS011;49539;48.160;11.530;2023-04-15T01:25:05;11.80;;;4.18;;
55148;SDS011;49539;48.160;11.530;2023-04-15T01:27:33;10.13;;;3.85;;
55148;SDS011;49539;48.160;11.530;2023-04-15T01:29:59;8.48;;;5.07;;
55148;SDS011;49539;48.160;11.530;2023-04-15T01:32:25;6.32;;;3.58;;
55148;SDS011;49539;48.160;11.530;2023-04-15T01:34:51;7.55;;;4.18;;
55148;SDS011;49539;48.160;11.530;2023-04-15T01:37:16;7.75;;;3.67;;
55148;SDS011;49539;48.160;11.530;2023-04-15T01:39:41;8.23;;;3.90;;
55148;SDS011;49539;48.160;11.530;2023-04-15T01:42:07;6.70;;;4.20;;
55148;SDS011;49539;48.160;11.530;2023-04-15T01:44:32;5.80;;;3.53;;
55148;SDS011;49539;48.160;11.530;2023-04-15T01:46:57;7.32;;;4.03;;
55148;SDS011;49539;48.160;11.530;2023-04-15T01:49:23;6.15;;;3.63;;
55148;SDS011;49539;48.160;11.530;2023-04-15T01:51:48;6.15;;;3.50;;
55148;SDS011;49539;48.160;11.530;2023-04-15T01:54:13;9.75;;;4.10;;
55148;SDS011;49539;48.160;11.530;2023-04-15T01:56:38;8.32;;;4.40;;
55148;SDS011;49539;48.160;11.530;2023-04-15T01:59:04;6.95;;;3.75;;
55148;SDS011;49539;48.160;11.530;2023-04-15T02:01:30;7.00;;;3.75;;
55148;SDS011;49539;48.160;11.530;2023-04-15T02:03:56;6.80;;;3.78;;
55148;SDS011;49539;48.160;11.530;2023-04-15T02:06:22;11.77;;;3.60;;
55148;SDS011;49539;48.160;11.530;2023-04-15T02:08:48;8.13;;;3.67;;
55148;SDS011;49539;48.160;11.530;2023-04-15T02:11:13;9.80;;;3.88;;
55148;SDS011;49539;48.160;11.530;2023-04-15T02:13:39;8.10;;;3.55;;
55148;SDS011;49539;48.160;11.530;2023-04-15T02:16:14;11.60;;;4.25;;
55148;SDS011;49539;48.160;11.530;2023-04-15T02:18:39;9.05;;;4.18;;
55148;SDS011;49539;48.160;11.530;2023-04-15T02:21:04;7.68;;;3.42;;
55148;SDS011;49539;48.160;11.530;2023-04-15T02:23:31;6.63;;;3.70;;
55148;SDS011;49539;48.160;11.530;2023-04-15T02:25:56;7.47;;;3.88;;
55148;SDS011;49539;48.160;11.530;2023-04-15T02:28:21;8.70;;;4.38;;
55148;SDS011;49539;48.160;11.530;2023-04-15T02:30:47;6.85;;;3.40;;
55148;SDS011;49539;48.160;11.530;2023-04-15T02:33:16;6.43;;;3.67;;
55148;SDS011;49539;48.160;11.530;2023-04-15T02:35:42;7.03;;;4.05;;
55148;SDS011;49539;48.160;11.530;2023-04-15T02:38:09;9.18;;;3.92;;
55148;SDS011;49539;48.160;11.530;2023-04-15T02:40:35;7.28;;;3.65;;
55148;SDS011;49539;48.160;11.530;2023-04-15T02:43:00;7.40;;;4.13;;
55148;SDS011;49539;48.160;11.530;2023-04-15T02:45:26;8.15;;;3.80;;
55148;SDS011;49539;48.160;11.530;2023-04-15T02:47:52;10.40;;;4.70;;
55148;SDS011;49539;48.160;11.530;2023-04-15T02:50:17;7.45;;;4.00;;
55148;SDS011;49539;48.160;11.530;2023-04-15T02:52:42;8.65;;;4.40;;
55148;SDS011;49539;48.160;11.530;2023-04-15T02:55:08;10.00;;;4.03;;
55148;SDS011;49539;48.160;11.530;2023-04-15T02:57:34;10.43;;;3.60;;
55148;SDS011;49539;48.160;11.530;2023-04-15T03:00:02;5.95;;;3.05;;
55148;SDS011;49539;48.160;11.530;2023-04-15T03:02:28;6.63;;;3.90;;
55148;SDS011;49539;48.160;11.530;2023-04-15T03:04:57;9.40;;;3.75;;
55148;SDS011;49539;48.160;11.530;2023-04-15T03:07:22;8.13;;;3.55;;
55148;SDS011;49539;48.160;11.530;2023-04-15T03:09:48;7.95;;;3.92;;
55148;SDS011;49539;48.160;11.530;2023-04-15T03:12:13;9.48;;;4.28;;
55148;SDS011;49539;48.160;11.530;2023-04-15T03:14:38;10.70;;;3.85;;
55148;SDS011;49539;48.160;11.530;2023-04-15T03:17:04;7.88;;;4.18;;
55148;SDS011;49539;48.160;11.530;2023-04-15T03:19:29;6.68;;;3.80;;
55148;SDS011;49539;48.160;11.530;2023-04-15T03:21:55;9.32;;;4.55;;
55148;SDS011;49539;48.160;11.530;2023-04-15T03:24:21;5.90;;;3.45;;
55148;SDS011;49539;48.160;11.530;2023-04-15T03:26:46;9.60;;;4.28;;
55148;SDS011;49539;48.160;11.530;2023-04-15T03:29:11;6.65;;;3.15;;
55148;SDS011;49539;48.160;11.530;2023-04-15T03:31:36;8.10;;;3.78;;
55148;SDS011;49539;48.160;11.530;2023-04-15T03:34:02;5.10;;;3.15;;
55148;SDS011;49539;48.160;11.530;2023-04-15T03:36:30;6.97;;;3.65;;
55148;SDS011;49539;48.160;11.530;2023-04-15T03:38:58;8.48;;;3.88;;
55148;SDS011;49539;48.160;11.530;2023-04-15T03:41:24;5.97;;;3.20;;
55148;SDS011;49539;48.160;11.530;2023-04-15T03:43:49;7.45;;;3.30;;
55148;SDS011;49539;48.160;11.530;2023-04-15T03:46:16;7.25;;;3.42;;
55148;SDS011;49539;48.160;11.530;2023-04-15T03:48:42;7.70;;;4.10;;
55148;SDS011;49539;48.160;11.530;2023-04-15T03:51:07;7.03;;;3.80;;
55148;SDS011;49539;48.160;11.530;2023-04-15T03:53:33;7.25;;;3.60;;
55148;SDS011;49539;48.160;11.530;2023-04-15T03:55:58;8.95;;;3.47;;
55148;SDS011;49539;48.160;11.530;2023-04-15T03:58:23;5.30;;;3.00;;
55148;SDS011;49539;48.160;11.530;2023-04-15T04:00:49;9.65;;;3.10;;
55148;SDS011;49539;48.160;11.530;2023-04-15T04:03:14;6.05;;;3.15;;
55148;SDS011;49539;48.160;11.530;2023-04-15T04:05:39;8.85;;;3.67;;
55148;SDS011;49539;48.160;11.530;2023-04-15T04:08:05;7.28;;;2.90;;
55148;SDS011;49539;48.160;11.530;2023-04-15T04:10:31;7.10;;;3.45;;
55148;SDS011;49539;48.160;11.530;2023-04-15T04:12:58;9.40;;;3.90;;
55148;SDS011;49539;48.160;11.530;2023-04-15T04:15:24;4.97;;;2.88;;
55148;SDS011;49539;48.160;11.530;2023-04-15T04:17:49;6.63;;;3.42;;
55148;SDS011;49539;48.160;11.530;2023-04-15T04:20:14;7.05;;;3.40;;
55148;SDS011;49539;48.160;11.530;2023-04-15T04:22:40;8.65;;;3.17;;
55148;SDS011;49539;48.160;11.530;2023-04-15T04:25:05;4.57;;;2.40;;
55148;SDS011;49539;48.160;11.530;2023-04-15T04:27:32;7.00;;;3.30;;
55148;SDS011;49539;48.160;11.530;2023-04-15T04:29:58;8.13;;;3.35;;
55148;SDS011;49539;48.160;11.530;2023-04-15T04:32:23;5.97;;;2.83;;
55148;SDS011;49539;48.160;11.530;2023-04-15T04:34:48;4.57;;;3.05;;
55148;SDS011;49539;48.160;11.530;2023-04-15T04:37:14;7.43;;;3.00;;
55148;SDS011;49539;48.160;11.530;2023-04-15T04:39:39;6.82;;;3.45;;
55148;SDS011;49539;48.160;11.530;2023-04-15T04:42:04;9.32;;;3.35;;
55148;SDS011;49539;48.160;11.530;2023-04-15T04:44:29;8.68;;;3.50;;
55148;SDS011;49539;48.160;11.530;2023-04-15T04:46:55;12.63;;;3.40;;
55148;SDS011;49539;48.160;11.530;2023-04-15T04:49:20;8.45;;;3.38;;
55148;SDS011;49539;48.160;11.530;2023-04-15T04:51:46;5.85;;;2.72;;
55148;SDS011;49539;48.160;11.530;2023-04-15T04:54:12;5.95;;;2.67;;
55148;SDS011;49539;48.160;11.530;2023-04-15T04:56:37;4.75;;;2.88;;
55148;SDS011;49539;48.160;11.530;2023-04-15T04:59:04;6.70;;;2.63;;
55148;SDS011;49539;48.160;11.530;2023-04-15T05:01:29;6.05;;;3.13;;
55148;SDS011;49539;48.160;11.530;2023-04-15T05:03:54;6.85;;;2.88;;
55148;SDS011;49539;48.160;11.530;2023-04-15T05:06:20;6.30;;;2.83;;
55148;SDS011;49539;48.160;11.530;2023-04-15T05:08:46;5.07;;;2.55;;
55148;SDS011;49539;48.160;11.530;2023-04-15T05:11:11;5.90;;;2.53;;
55148;SDS011;49539;48.160;11.530;2023-04-15T05:13:37;5.00;;;2.58;;
55148;SDS011;49539;48.160;11.530;2023-04-15T05:16:03;6.90;;;2.95;;
55148;SDS011;49539;48.160;11.530;2023-04-15T05:18:29;8.10;;;2.83;;
55148;SDS011;49539;48.160;11.530;2023-04-15T05:20:55;6.18;;;2.70;;
55148;SDS011;49539;48.160;11.530;2023-04-15T05:23:21;12.38;;;3.00;;
55148;SDS011;49539;48.160;11.530;2023-04-15T05:25:46;9.32;;;2.70;;
55148;SDS011;49539;48.160;11.530;2023-04-15T05:28:11;6.40;;;2.70;;
55148;SDS011;49539;48.160;11.530;2023-04-15T05:30:37;6.25;;;2.30;;
55148;SDS011;49539;48.160;11.530;2023-04-15T05:33:02;3.60;;;2.03;;
55148;SDS011;49539;48.160;11.530;2023-04-15T05:35:28;5.70;;;2.40;;
55148;SDS011;49539;48.160;11.530;2023-04-15T05:37:53;6.30;;;2.60;;
55148;SDS011;49539;48.160;11.530;2023-04-15T05:40:18;7.57;;;2.40;;
55148;SDS011;49539;48.160;11.530;2023-04-15T05:42:44;4.60;;;2.42;;
55148;SDS011;49539;48.160;11.530;2023-04-15T05:45:09;6.63;;;2.28;;
55148;SDS011;49539;48.160;11.530;2023-04-15T05:47:35;3.85;;;2.03;;
55148;SDS011;49539;48.160;11.530;2023-04-15T05:50:01;5.25;;;1.98;;
55148;SDS011;49539;48.160;11.530;2023-04-15T05:52:27;6.82;;;2.47;;
55148;SDS011;49539;48.160;11.530;2023-04-15T05:54:52;6.85;;;2.67;;
55148;SDS011;49539;48.160;11.530;2023-04-15T05:57:17;4.32;;;1.92;;
55148;SDS011;49539;48.160;11.530;2023-04-15T05:59:43;3.80;;;2.00;;
55148;SDS011;49539;48.160;11.530;2023-04-15T06:02:08;3.80;;;1.90;;
55148;SDS011;49539;48.160;11.530;2023-04-15T06:04:34;3.63;;;1.88;;
55148;SDS011;49539;48.160;11.530;2023-04-15T06:06:59;6.30;;;2.50;;
55148;SDS011;49539;48.160;11.530;2023-04-15T06:09:25;5.00;;;2.08;;
55148;SDS011;49539;48.160;11.530;2023-04-15T06:11:50;7.53;;;2.00;;
55148;SDS011;49539;48.160;11.530;2023-04-15T06:14:16;6.43;;;2.20;;
55148;SDS011;49539;48.160;11.530;2023-04-15T06:16:41;6.13;;;2.25;;
55148;SDS011;49539;48.160;11.530;2023-04-15T06:19:06;9.25;;;2.28;;
55148;SDS011;49539;48.160;11.530;2023-04-15T06:21:31;5.88;;;1.85;;
55148;SDS011;49539;48.160;11.530;2023-04-15T06:23:58;7.72;;;2.85;;
55148;SDS011;49539;48.160;11.530;2023-04-15T06:26:25;6.90;;;1.70;;
55148;SDS011;49539;48.160;11.530;2023-04-15T06:28:50;7.13;;;2.17;;
55148;SDS011;49539;48.160;11.530;2023-04-15T06:31:15;5.60;;;2.03;;
55148;SDS011;49539;48.160;11.530;2023-04-15T06:33:41;4.80;;;1.80;;
55148;SDS011;49539;48.160;11.530;2023-04-15T06:36:06;3.55;;;1.80;;
55148;SDS011;49539;48.160;11.530;2023-04-15T06:38:31;7.45;;;2.13;;
55148;SDS011;49539;48.160;11.530;2023-04-15T06:40:57;6.82;;;1.98;;
55148;SDS011;49539;48.160;11.530;2023-04-15T06:43:22;3.55;;;1.58;;
55148;SDS011;49539;48.160;11.530;2023-04-15T06:45:48;4.00;;;2.00;;
55148;SDS011;49539;48.160;11.530;2023-04-15T06:48:13;4.70;;;1.80;;
55148;SDS011;49539;48.160;11.530;2023-04-15T06:50:38;6.93;;;2.20;;
55148;SDS011;49539;48.160;11.530;2023-04-15T06:53:04;2.65;;;1.70;;
55148;SDS011;49539;48.160;11.530;2023-04-15T06:55:29;7.00;;;2.45;;
55148;SDS011;49539;48.160;11.530;2023-04-15T06:57:55;4.22;;;1.65;;
55148;SDS011;49539;48.160;11.530;2023-04-15T07:00:21;4.60;;;2.17;;
55148;SDS011;49539;48.160;11.530;2023-04-15T07:02:46;6.53;;;1.92;;
55148;SDS011;49539;48.160;11.530;2023-04-15T07:05:11;3.20;;;1.65;;
55148;SDS011;49539;48.160;11.530;2023-04-15T07:07:37;4.10;;;1.88;;
55148;SDS011;49539;48.160;11.530;2023-04-15T07:10:02;2.47;;;1.50;;
55148;SDS011;49539;48.160;11.530;2023-04-15T07:12:27;3.42;;;1.58;;
55148;SDS011;49539;48.160;11.530;2023-04-15T07:14:53;4.22;;;1.40;;
55148;SDS011;49539;48.160;11.530;2023-04-15T07:17:18;3.78;;;1.65;;
55148;SDS011;49539;48.160;11.530;2023-04-15T07:19:43;7.30;;;1.85;;
55148;SDS011;49539;48.160;11.530;2023-04-15T07:22:09;4.67;;;1.77;;
55148;SDS011;49539;48.160;11.530;2023-04-15T07:24:34;4.30;;;1.67;;
55148;SDS011;49539;48.160;11.530;2023-04-15T07:26:59;2.97;;;1.42;;
55148;SDS011;49539;48.160;11.530;2023-04-15T07:29:25;3.03;;;1.13;;
55148;SDS011;49539;48.160;11.530;2023-04-15T07:31:51;2.53;;;1.20;;
55148;SDS011;49539;48.160;11.530;2023-04-15T07:34:17;3.00;;;1.52;;
55148;SDS011;49539;48.160;11.530;2023-04-15T07:36:43;2.38;;;1.27;;
55148;SDS011;49539;48.160;11.530;2023-04-15T07:39:08;3.63;;;1.30;;
55148;SDS011;49539;48.160;11.530;2023-04-15T07:41:34;4.55;;;1.60;;
55148;SDS011;49539;48.160;11.530;2023-04-15T07:43:59;3.80;;;1.40;;
55148;SDS011;49539;48.160;11.530;2023-04-15T07:46:24;4.05;;;1.75;;
55148;SDS011;49539;48.160;11.530;2023-04-15T07:48:51;1.88;;;1.10;;
55148;SDS011;49539;48.160;11.530;2023-04-15T07:51:18;5.32;;;1.67;;
55148;SDS011;49539;48.160;11.530;2023-04-15T07:53:45;2.40;;;1.38;;
55148;SDS011;49539;48.160;11.530;2023-04-15T07:56:10;2.90;;;1.40;;
55148;SDS011;49539;48.160;11.530;2023-04-15T07:58:35;4.45;;;1.40;;
55148;SDS011;49539;48.160;11.530;2023-04-15T08:01:02;2.75;;;1.40;;
55148;SDS011;49539;48.160;11.530;2023-04-15T08:03:28;1.77;;;1.00;;
55148;SDS011;49539;48.160;11.530;2023-04-15T08:05:53;5.63;;;2.05;;
55148;SDS011;49539;48.160;11.530;2023-04-15T08:08:19;4.65;;;1.70;;
55148;SDS011;49539;48.160;11.530;2023-04-15T08:10:44;6.18;;;1.10;;
55148;SDS011;49539;48.160;11.530;2023-04-15T08:13:09;4.15;;;1.45;;
55148;SDS011;49539;48.160;11.530;2023-04-15T08:15:35;3.90;;;1.17;;
55148;SDS011;49539;48.160;11.530;2023-04-15T08:18:01;5.68;;;1.77;;
55148;SDS011;49539;48.160;11.530;2023-04-15T08:20:26;5.70;;;1.13;;
55148;SDS011;49539;48.160;11.530;2023-04-15T08:22:51;4.45;;;1.50;;
55148;SDS011;49539;48.160;11.530;2023-04-15T08:25:17;6.35;;;1.80;;
55148;SDS011;49539;48.160;11.530;2023-04-15T08:27:43;5.03;;;1.70;;
55148;SDS011;49539;48.160;11.530;2023-04-15T08:30:09;3.70;;;1.80;;
55148;SDS011;49539;48.160;11.530;2023-04-15T08:32:35;6.30;;;1.95;;
55148;SDS011;49539;48.160;11.530;2023-04-15T08:35:03;6.10;;;2.15;;
55148;SDS011;49539;48.160;11.530;2023-04-15T08:37:28;4.53;;;1.67;;
55148;SDS011;49539;48.160;11.530;2023-04-15T08:39:54;6.40;;;1.50;;
55148;SDS011;49539;48.160;11.530;2023-04-15T08:42:22;3.40;;;1.70;;
55148;SDS011;49539;48.160;11.530;2023-04-15T08:44:47;2.42;;;1.23;;
55148;SDS011;49539;48.160;11.530;2023-04-15T08:47:13;3.83;;;1.80;;
55148;SDS011;49539;48.160;11.530;2023-04-15T08:49:41;7.30;;;1.95;;
55148;SDS011;49539;48.160;11.530;2023-04-15T08:52:07;6.80;;;2.33;;
55148;SDS011;49539;48.160;11.530;2023-04-15T08:54:33;9.05;;;1.67;;
55148;SDS011;49539;48.160;11.530;2023-04-15T08:56:59;6.85;;;1.98;;
55148;SDS011;49539;48.160;11.530;2023-04-15T08:59:26;3.97;;;1.63;;
55148;SDS011;49539;48.160;11.530;2023-04-15T09:01:51;5.72;;;1.65;;
55148;SDS011;49539;48.160;11.530;2023-04-15T09:04:17;3.95;;;1.48;;
55148;SDS011;49539;48.160;11.530;2023-04-15T09:06:42;2.67;;;1.42;;
55148;SDS011;49539;48.160;11.530;2023-04-15T09:09:08;3.20;;;1.70;;
55148;SDS011;49539;48.160;11.530;2023-04-15T09:11:39;6.95;;;1.77;;
55148;SDS011;49539;48.160;11.530;2023-04-15T09:14:04;3.38;;;1.90;;
55148;SDS011;49539;48.160;11.530;2023-04-15T09:16:30;5.78;;;2.08;;
55148;SDS011;49539;48.160;11.530;2023-04-15T09:18:55;7.20;;;2.05;;
55148;SDS011;49539;48.160;11.530;2023-04-15T09:21:21;4.78;;;1.92;;
55148;SDS011;49539;48.160;11.530;2023-04-15T09:23:54;4.20;;;2.00;;
55148;SDS011;49539;48.160;11.530;2023-04-15T09:26:34;5.78;;;1.67;;
55148;SDS011;49539;48.160;11.530;2023-04-15T09:29:03;4.10;;;1.92;;
55148;SDS011;49539;48.160;11.530;2023-04-15T09:31:29;3.65;;;1.73;;
55148;SDS011;49539;48.160;11.530;2023-04-15T09:33:54;4.25;;;1.90;;
55148;SDS011;49539;48.160;11.530;2023-04-15T09:36:22;5.32;;;1.90;;
55148;SDS011;49539;48.160;11.530;2023-04-15T09:38:58;5.60;;;2.17;;
55148;SDS011;49539;48.160;11.530;2023-04-15T09:41:24;8.07;;;2.13;;
55148;SDS011;49539;48.160;11.530;2023-04-15T09:43:50;3.53;;;2.17;;
55148;SDS011;49539;48.160;11.530;2023-04-15T09:46:15;4.28;;;2.30;;
55148;SDS011;49539;48.160;11.530;2023-04-15T09:48:40;5.68;;;2.13;;
55148;SDS011;49539;48.160;11.530;2023-04-15T09:51:06;3.35;;;2.08;;
55148;SDS011;49539;48.160;11.530;2023-04-15T09:53:32;4.50;;;2.03;;
55148;SDS011;49539;48.160;11.530;2023-04-15T09:55:58;5.25;;;2.22;;
55148;SDS011;49539;48.160;11.530;2023-04-15T09:58:30;4.65;;;2.20;;
55148;SDS011;49539;48.160;11.530;2023-04-15T10:00:56;8.07;;;2.78;;
55148;SDS011;49539;48.160;11.530;2023-04-15T10:03:23;4.28;;;2.33;;
55148;SDS011;49539;48.160;11.530;2023-04-15T10:05:49;4.80;;;2.28;;
55148;SDS011;49539;48.160;11.530;2023-04-15T10:08:16;3.95;;;2.10;;
55148;SDS011;49539;48.160;11.530;2023-04-15T10:10:42;5.55;;;2.45;;
55148;SDS011;49539;48.160;11.530;2023-04-15T10:13:07;4.30;;;2.83;;
55148;SDS011;49539;48.160;11.530;2023-04-15T10:15:33;4.55;;;2.55;;
55148;SDS011;49539;48.160;11.530;2023-04-15T10:17:59;5.35;;;2.17;;
55148;SDS011;49539;48.160;11.530;2023-04-15T10:20:25;3.63;;;1.92;;
55148;SDS011;49539;48.160;11.530;2023-04-15T10:22:51;5.65;;;2.70;;
55148;SDS011;49539;48.160;11.530;2023-04-15T10:25:17;5.07;;;2.25;;
55148;SDS011;49539;48.160;11.530;2023-04-15T10:27:43;10.35;;;2.78;;
55148;SDS011;49539;48.160;11.530;2023-04-15T10:30:09;6.50;;;2.85;;
55148;SDS011;49539;48.160;11.530;2023-04-15T10:32:35;6.85;;;2.55;;
55148;SDS011;49539;48.160;11.530;2023-04-15T10:35:01;5.57;;;2.58;;
55148;SDS011;49539;48.160;11.530;2023-04-15T10:37:35;8.23;;;3.08;;
55148;SDS011;49539;48.160;11.530;2023-04-15T10:40:01;5.25;;;2.90;;
55148;SDS011;49539;48.160;11.530;2023-04-15T10:42:46;5.65;;;2.50;;
55148;SDS011;49539;48.160;11.530;2023-04-15T10:45:15;5.43;;;2.55;;
55148;SDS011;49539;48.160;11.530;2023-04-15T10:47:42;4.55;;;2.70;;
55148;SDS011;49539;48.160;11.530;2023-04-15T10:50:07;4.95;;;2.88;;
55148;SDS011;49539;48.160;11.530;2023-04-15T10:52:33;5.10;;;3.05;;
55148;SDS011;49539;48.160;11.530;2023-04-15T10:55:14;4.85;;;2.60;;
55148;SDS011;49539;48.160;11.530;2023-04-15T10:57:41;8.82;;;2.72;;
55148;SDS011;49539;48.160;11.530;2023-04-15T11:00:13;7.20;;;2.58;;
55148;SDS011;49539;48.160;11.530;2023-04-15T11:02:42;4.55;;;2.67;;
55148;SDS011;49539;48.160;11.530;2023-04-15T11:05:08;6.75;;;3.05;;
55148;SDS011;49539;48.160;11.530;2023-04-15T11:07:46;4.88;;;2.80;;
55148;SDS011;49539;48.160;11.530;2023-04-15T11:12:38;4.87;;;2.60;;
55148;SDS011;49539;48.160;11.530;2023-04-15T11:17:47;5.15;;;2.80;;
55148;SDS011;49539;48.160;11.530;2023-04-15T11:20:16;7.05;;;2.88;;
55148;SDS011;49539;48.160;11.530;2023-04-15T11:22:51;10.60;;;3.55;;
55148;SDS011;49539;48.160;11.530;2023-04-15T11:25:21;8.88;;;3.40;;
55148;SDS011;49539;48.160;11.530;2023-04-15T11:27:46;4.90;;;2.97;;
55148;SDS011;49539;48.160;11.530;2023-04-15T11:30:22;5.93;;;3.00;;
55148;SDS011;49539;48.160;11.530;2023-04-15T11:32:48;6.65;;;3.05;;
55148;SDS011;49539;48.160;11.530;2023-04-15T11:35:13;4.82;;;2.90;;
55148;SDS011;49539;48.160;11.530;2023-04-15T11:37:38;6.70;;;3.22;;
55148;SDS011;49539;48.160;11.530;2023-04-15T11:40:05;9.27;;;3.70;;
55148;SDS011;49539;48.160;11.530;2023-04-15T11:42:30;10.30;;;4.13;;
55148;SDS011;49539;48.160;11.530;2023-04-15T11:45:05;9.18;;;3.10;;
55148;SDS011;49539;48.160;11.530;2023-04-15T11:47:32;11.55;;;4.13;;
55148;SDS011;49539;48.160;11.530;2023-04-15T11:50:12;7.88;;;2.92;;
55148;SDS011;49539;48.160;11.530;2023-04-15T11:52:37;6.80;;;3.28;;
55148;SDS011;49539;48.160;11.530;2023-04-15T11:55:02;7.63;;;3.45;;
55148;SDS011;49539;48.160;11.530;2023-04-15T11:57:31;7.25;;;2.95;;
55148;SDS011;49539;48.160;11.530;2023-04-15T11:59:56;6.55;;;3.63;;
55148;SDS011;49539;48.160;11.530;2023-04-15T12:02:29;5.43;;;3.15;;
55148;SDS011;49539;48.160;11.530;2023-04-15T12:05:01;7.13;;;3.45;;
55148;SDS011;49539;48.160;11.530;2023-04-15T12:07:27;5.60;;;3.13;;
55148;SDS011;49539;48.160;11.530;2023-04-15T12:09:56;7.43;;;3.03;;
55148;SDS011;49539;48.160;11.530;2023-04-15T12:12:21;7.00;;;3.25;;
55148;SDS011;49539;48.160;11.530;2023-04-15T12:14:51;5.20;;;2.88;;
55148;SDS011;49539;48.160;11.530;2023-04-15T12:17:16;5.22;;;2.72;;
55148;SDS011;49539;48.160;11.530;2023-04-15T12:19:42;6.63;;;3.35;;
55148;SDS011;49539;48.160;11.530;2023-04-15T12:22:12;5.05;;;2.75;;
55148;SDS011;49539;48.160;11.530;2023-04-15T12:24:39;4.43;;;2.47;;
55148;SDS011;49539;48.160;11.530;2023-04-15T12:27:05;6.22;;;3.35;;
55148;SDS011;49539;48.160;11.530;2023-04-15T12:29:31;5.70;;;3.00;;
55148;SDS011;49539;48.160;11.530;2023-04-15T12:32:07;7.60;;;2.85;;
55148;SDS011;49539;48.160;11.530;2023-04-15T12:34:34;5.93;;;3.00;;
55148;SDS011;49539;48.160;11.530;2023-04-15T12:37:00;8.05;;;2.75;;
55148;SDS011;49539;48.160;11.530;2023-04-15T12:39:27;4.45;;;2.50;;
55148;SDS011;49539;48.160;11.530;2023-04-15T12:41:52;5.32;;;2.53;;
55148;SDS011;49539;48.160;11.530;2023-04-15T12:44:18;5.28;;;2.25;;
55148;SDS011;49539;48.160;11.530;2023-04-15T12:46:44;4.25;;;1.90;;
55148;SDS011;49539;48.160;11.530;2023-04-15T12:49:10;5.68;;;2.10;;
55148;SDS011;49539;48.160;11.530;2023-04-15T12:51:37;6.82;;;2.22;;
55148;SDS011;49539;48.160;11.530;2023-04-15T12:54:04;3.78;;;2.25;;
55148;SDS011;49539;48.160;11.530;2023-04-15T12:56:29;5.13;;;2.15;;
55148;SDS011;49539;48.160;11.530;2023-04-15T12:58:54;2.97;;;1.90;;
55148;SDS011;49539;48.160;11.530;2023-04-15T13:01:20;7.47;;;2.90;;
55148;SDS011;49539;48.160;11.530;2023-04-15T13:03:45;4.88;;;2.03;;
55148;SDS011;49539;48.160;11.530;2023-04-15T13:06:10;5.95;;;2.40;;
55148;SDS011;49539;48.160;11.530;2023-04-15T13:08:36;4.05;;;2.35;;
55148;SDS011;49539;48.160;11.530;2023-04-15T13:11:02;5.82;;;2.03;;
55148;SDS011;49539;48.160;11.530;2023-04-15T13:13:27;4.82;;;1.80;;
55148;SDS011;49539;48.160;11.530;2023-04-15T13:15:53;6.80;;;2.15;;
55148;SDS011;49539;48.160;11.530;2023-04-15T13:18:18;4.32;;;2.25;;
55148;SDS011;49539;48.160;11.530;2023-04-15T13:20:43;4.85;;;2.38;;
55148;SDS011;49539;48.160;11.530;2023-04-15T13:23:08;4.90;;;2.40;;
55148;SDS011;49539;48.160;11.530;2023-04-15T13:25:34;4.60;;;2.10;;
55148;SDS011;49539;48.160;11.530;2023-04-15T13:27:59;4.57;;;2.30;;
55148;SDS011;49539;48.160;11.530;2023-04-15T13:30:25;4.93;;;2.85;;
55148;SDS011;49539;48.160;11.530;2023-04-15T13:32:51;5.03;;;2.25;;
55148;SDS011;49539;48.160;11.530;2023-04-15T13:35:17;7.55;;;2.63;;
55148;SDS011;49539;48.160;11.530;2023-04-15T13:37:43;5.75;;;3.00;;
55148;SDS011;49539;48.160;11.530;2023-04-15T13:40:08;6.70;;;3.10;;
55148;SDS011;49539;48.160;11.530;2023-04-15T13:42:34;4.57;;;2.65;;
55148;SDS011;49539;48.160;11.530;2023-04-15T13:44:59;4.53;;;2.88;;
55148;SDS011;49539;48.160;11.530;2023-04-15T13:47:24;10.27;;;3.35;;
55148;SDS011;49539;48.160;11.530;2023-04-15T13:49:50;6.03;;;3.22;;
55148;SDS011;49539;48.160;11.530;2023-04-15T13:52:16;9.23;;;3.67;;
55148;SDS011;49539;48.160;11.530;2023-04-15T13:54:42;9.85;;;3.45;;
55148;SDS011;49539;48.160;11.530;2023-04-15T13:57:07;7.85;;;3.40;;
55148;SDS011;49539;48.160;11.530;2023-04-15T13:59:33;5.70;;;3.15;;
55148;SDS011;49539;48.160;11.530;2023-04-15T14:01:59;5.68;;;3.17;;
55148;SDS011;49539;48.160;11.530;2023-04-15T14:04:24;5.28;;;2.90;;
55148;SDS011;49539;48.160;11.530;2023-04-15T14:06:49;7.30;;;3.08;;
55148;SDS011;49539;48.160;11.530;2023-04-15T14:09:14;4.13;;;2.80;;
55148;SDS011;49539;48.160;11.530;2023-04-15T14:11:40;4.40;;;2.40;;
55148;SDS011;49539;48.160;11.530;2023-04-15T14:14:05;4.55;;;2.70;;
55148;SDS011;49539;48.160;11.530;2023-04-15T14:16:31;5.50;;;2.40;;
55148;SDS011;49539;48.160;11.530;2023-04-15T14:18:57;4.78;;;2.33;;
55148;SDS011;49539;48.160;11.530;2023-04-15T14:21:22;5.07;;;2.10;;
55148;SDS011;49539;48.160;11.530;2023-04-15T14:23:47;3.47;;;2.17;;
55148;SDS011;49539;48.160;11.530;2023-04-15T14:26:13;10.23;;;2.13;;
55148;SDS011;49539;48.160;11.530;2023-04-15T14:28:38;4.20;;;2.30;;
55148;SDS011;49539;48.160;11.530;2023-04-15T14:31:04;4.28;;;2.40;;
55148;SDS011;49539;48.160;11.530;2023-04-15T14:33:29;5.50;;;1.95;;